sensor_id;sensor_type;location;lat;lon;timestamp;pressure;altitude;pressure_sealevel;temperature;humidity
75414;BME280;64758;52.122;5.404;2023-06-10T00:02:01;101659.44;;;19.68;61.06
75414;BME280;64758;52.122;5.404;2023-06-10T00:04:28;101656.59;;;19.63;61.40
75414;BME280;64758;52.122;5.404;2023-06-10T00:06:54;101660.34;;;19.62;60.88
75414;BME280;64758;52.122;5.404;2023-06-10T00:09:21;101662.22;;;19.61;60.59
75414;BME280;64758;52.122;5.404;2023-06-10T00:11:49;101657.75;;;19.55;60.86
75414;BME280;64758;52.122;5.404;2023-06-10T00:14:15;101656.69;;;19.56;60.19
75414;BME280;64758;52.122;5.404;2023-06-10T00:16:42;101671.22;;;19.55;60.66
75414;BME280;64758;52.122;5.404;2023-06-10T00:19:11;101665.00;;;19.55;60.62
75414;BME280;64758;52.122;5.404;2023-06-10T00:21:40;101670.38;;;19.55;60.38
75414;BME280;64758;52.122;5.404;2023-06-10T00:24:07;101669.13;;;19.57;59.69
75414;BME280;64758;52.122;5.404;2023-06-10T00:26:39;101669.56;;;19.54;59.36
75414;BME280;64758;52.122;5.404;2023-06-10T00:29:07;101667.47;;;19.56;59.90
75414;BME280;64758;52.122;5.404;2023-06-10T00:31:35;101676.00;;;19.53;59.81
75414;BME280;64758;52.122;5.404;2023-06-10T00:34:02;101669.19;;;19.51;59.56
75414;BME280;64758;52.122;5.404;2023-06-10T00:36:29;101667.97;;;19.47;59.77
75414;BME280;64758;52.122;5.404;2023-06-10T00:38:56;101667.00;;;19.41;59.44
75414;BME280;64758;52.122;5.404;2023-06-10T00:41:23;101669.75;;;19.35;60.36
75414;BME280;64758;52.122;5.404;2023-06-10T00:43:50;101675.16;;;19.35;59.29
75414;BME280;64758;52.122;5.404;2023-06-10T00:46:17;101675.16;;;19.35;59.53
75414;BME280;64758;52.122;5.404;2023-06-10T00:48:45;101683.25;;;19.35;59.41
75414;BME280;64758;52.122;5.404;2023-06-10T00:51:12;101683.69;;;19.32;58.94
75414;BME280;64758;52.122;5.404;2023-06-10T00:53:40;101681.44;;;19.29;59.70
75414;BME280;64758;52.122;5.404;2023-06-10T00:56:07;101677.94;;;19.28;58.91
75414;BME280;64758;52.122;5.404;2023-06-10T00:58:34;101684.13;;;19.29;60.61
75414;BME280;64758;52.122;5.404;2023-06-10T01:01:02;101682.31;;;19.23;58.52
75414;BME280;64758;52.122;5.404;2023-06-10T01:03:30;101672.59;;;19.22;57.21
75414;BME280;64758;52.122;5.404;2023-06-10T01:08:33;101675.69;;;19.26;55.99
75414;BME280;64758;52.122;5.404;2023-06-10T01:11:03;101670.66;;;19.29;56.37
75414;BME280;64758;52.122;5.404;2023-06-10T01:13:35;101675.59;;;19.32;55.21
75414;BME280;64758;52.122;5.404;2023-06-10T01:16:04;101680.19;;;19.31;55.80
75414;BME280;64758;52.122;5.404;2023-06-10T01:18:31;101683.06;;;19.30;56.21
75414;BME280;64758;52.122;5.404;2023-06-10T01:20:58;101675.22;;;19.28;55.74
75414;BME280;64758;52.122;5.404;2023-06-10T01:23:24;101677.69;;;19.30;55.23
75414;BME280;64758;52.122;5.404;2023-06-10T01:26:00;101685.34;;;19.33;55.63
75414;BME280;64758;52.122;5.404;2023-06-10T01:28:48;101685.94;;;19.35;56.06
75414;BME280;64758;52.122;5.404;2023-06-10T01:31:42;101685.16;;;19.28;55.71
75414;BME280;64758;52.122;5.404;2023-06-10T01:34:13;101692.44;;;19.27;56.49
75414;BME280;64758;52.122;5.404;2023-06-10T01:36:41;101689.97;;;19.26;56.59
75414;BME280;64758;52.122;5.404;2023-06-10T01:39:11;101683.16;;;19.24;55.59
75414;BME280;64758;52.122;5.404;2023-06-10T01:41:39;101686.06;;;19.22;57.22
75414;BME280;64758;52.122;5.404;2023-06-10T01:44:06;101678.25;;;19.14;57.76
75414;BME280;64758;52.122;5.404;2023-06-10T01:46:33;101679.13;;;19.08;57.14
75414;BME280;64758;52.122;5.404;2023-06-10T01:48:59;101684.53;;;19.08;57.43
75414;BME280;64758;52.122;5.404;2023-06-10T01:51:26;101685.41;;;19.02;59.10
75414;BME280;64758;52.122;5.404;2023-06-10T01:53:53;101695.78;;;18.99;58.72
75414;BME280;64758;52.122;5.404;2023-06-10T01:56:19;101672.66;;;18.91;60.61
75414;BME280;64758;52.122;5.404;2023-06-10T01:58:46;101688.41;;;18.88;61.69
75414;BME280;64758;52.122;5.404;2023-06-10T02:01:13;101680.56;;;18.86;62.82
75414;BME280;64758;52.122;5.404;2023-06-10T02:03:40;101694.50;;;18.77;61.93
75414;BME280;64758;52.122;5.404;2023-06-10T02:06:07;101695.19;;;18.72;62.43
75414;BME280;64758;52.122;5.404;2023-06-10T02:08:34;101691.09;;;18.63;64.18
75414;BME280;64758;52.122;5.404;2023-06-10T02:11:01;101702.28;;;18.60;62.84
75414;BME280;64758;52.122;5.404;2023-06-10T02:13:27;101690.50;;;18.55;63.84
75414;BME280;64758;52.122;5.404;2023-06-10T02:15:54;101697.00;;;18.47;65.25
75414;BME280;64758;52.122;5.404;2023-06-10T02:18:20;101689.56;;;18.43;65.08
75414;BME280;64758;52.122;5.404;2023-06-10T02:20:48;101699.94;;;18.39;65.74
75414;BME280;64758;52.122;5.404;2023-06-10T02:23:15;101699.94;;;18.39;65.97
75414;BME280;64758;52.122;5.404;2023-06-10T02:25:41;101696.28;;;18.27;65.69
75414;BME280;64758;52.122;5.404;2023-06-10T02:28:08;101693.81;;;18.19;66.73
75414;BME280;64758;52.122;5.404;2023-06-10T02:30:34;101695.47;;;18.14;66.09
75414;BME280;64758;52.122;5.404;2023-06-10T02:33:01;101708.72;;;18.15;64.68
75414;BME280;64758;52.122;5.404;2023-06-10T02:35:28;101707.50;;;18.11;64.59
75414;BME280;64758;52.122;5.404;2023-06-10T02:37:55;101716.59;;;18.10;65.60
75414;BME280;64758;52.122;5.404;2023-06-10T02:40:21;101714.34;;;18.07;64.32
75414;BME280;64758;52.122;5.404;2023-06-10T02:42:48;101713.13;;;18.03;64.37
75414;BME280;64758;52.122;5.404;2023-06-10T02:45:14;101706.53;;;17.99;64.78
75414;BME280;64758;52.122;5.404;2023-06-10T02:47:41;101706.91;;;18.03;64.67
75414;BME280;64758;52.122;5.404;2023-06-10T02:50:08;101720.56;;;18.01;65.42
75414;BME280;64758;52.122;5.404;2023-06-10T02:52:35;101715.00;;;17.96;67.28
75414;BME280;64758;52.122;5.404;2023-06-10T02:55:01;101717.72;;;17.90;66.18
75414;BME280;64758;52.122;5.404;2023-06-10T02:57:28;101711.31;;;17.85;66.36
75414;BME280;64758;52.122;5.404;2023-06-10T02:59:54;101710.31;;;17.79;65.79
75414;BME280;64758;52.122;5.404;2023-06-10T03:02:21;101707.41;;;17.81;66.46
75414;BME280;64758;52.122;5.404;2023-06-10T03:04:49;101707.22;;;17.76;66.51
75414;BME280;64758;52.122;5.404;2023-06-10T03:07:17;101714.66;;;17.74;66.69
75414;BME280;64758;52.122;5.404;2023-06-10T03:09:45;101705.59;;;17.68;66.47
75414;BME280;64758;52.122;5.404;2023-06-10T03:12:11;101709.09;;;17.69;66.51
75414;BME280;64758;52.122;5.404;2023-06-10T03:14:38;101707.69;;;17.66;66.32
75414;BME280;64758;52.122;5.404;2023-06-10T03:17:05;101719.84;;;17.69;66.70
75414;BME280;64758;52.122;5.404;2023-06-10T03:19:32;101707.69;;;17.60;66.69
75414;BME280;64758;52.122;5.404;2023-06-10T03:22:13;101708.72;;;17.59;66.78
75414;BME280;64758;52.122;5.404;2023-06-10T03:24:40;101707.47;;;17.55;67.10
75414;BME280;64758;52.122;5.404;2023-06-10T03:27:07;101721.53;;;17.57;67.35
75414;BME280;64758;52.122;5.404;2023-06-10T03:29:35;101719.69;;;17.57;67.56
75414;BME280;64758;52.122;5.404;2023-06-10T03:32:01;101719.88;;;17.62;67.65
75414;BME280;64758;52.122;5.404;2023-06-10T03:34:28;101717.81;;;17.64;67.05
75414;BME280;64758;52.122;5.404;2023-06-10T03:36:56;101718.19;;;17.68;67.22
75414;BME280;64758;52.122;5.404;2023-06-10T03:39:24;101715.75;;;17.66;67.05
75414;BME280;64758;52.122;5.404;2023-06-10T03:41:50;101725.03;;;17.70;67.84
75414;BME280;64758;52.122;5.404;2023-06-10T03:44:17;101720.47;;;17.71;67.30
75414;BME280;64758;52.122;5.404;2023-06-10T03:46:44;101725.84;;;17.71;67.38
75414;BME280;64758;52.122;5.404;2023-06-10T03:49:10;101722.53;;;17.69;67.87
75414;BME280;64758;52.122;5.404;2023-06-10T03:51:37;101727.91;;;17.69;67.76
75414;BME280;64758;52.122;5.404;2023-06-10T03:54:04;101727.72;;;17.70;67.76
75414;BME280;64758;52.122;5.404;2023-06-10T03:56:31;101736.19;;;17.74;67.39
75414;BME280;64758;52.122;5.404;2023-06-10T03:58:57;101728.34;;;17.72;67.62
75414;BME280;64758;52.122;5.404;2023-06-10T04:01:24;101733.28;;;17.75;67.98
75414;BME280;64758;52.122;5.404;2023-06-10T04:03:50;101731.22;;;17.77;67.87
75414;BME280;64758;52.122;5.404;2023-06-10T04:06:20;101731.22;;;17.77;68.27
75414;BME280;64758;52.122;5.404;2023-06-10T04:08:48;101729.97;;;17.80;68.36
75414;BME280;64758;52.122;5.404;2023-06-10T04:11:15;101739.88;;;17.86;67.74
75414;BME280;64758;52.122;5.404;2023-06-10T04:13:42;101732.59;;;17.86;68.54
75414;BME280;64758;52.122;5.404;2023-06-10T04:16:08;101729.91;;;17.86;67.51
75414;BME280;64758;52.122;5.404;2023-06-10T04:18:35;101741.91;;;17.90;68.94
75414;BME280;64758;52.122;5.404;2023-06-10T04:21:02;101733.63;;;17.92;68.73
75414;BME280;64758;52.122;5.404;2023-06-10T04:23:29;101745.63;;;17.95;68.45
75414;BME280;64758;52.122;5.404;2023-06-10T04:25:55;101745.63;;;17.95;68.10
75414;BME280;64758;52.122;5.404;2023-06-10T04:28:22;101754.91;;;17.99;68.05
75414;BME280;64758;52.122;5.404;2023-06-10T04:30:48;101746.44;;;18.02;69.10
75414;BME280;64758;52.122;5.404;2023-06-10T04:33:15;101748.09;;;18.03;69.16
75414;BME280;64758;52.122;5.404;2023-06-10T04:35:42;101754.06;;;18.05;68.49
75414;BME280;64758;52.122;5.404;2023-06-10T04:38:09;101748.03;;;18.10;68.28
75414;BME280;64758;52.122;5.404;2023-06-10T04:40:35;101747.19;;;18.16;67.61
75414;BME280;64758;52.122;5.404;2023-06-10T04:43:03;101750.06;;;18.21;67.25
75414;BME280;64758;52.122;5.404;2023-06-10T04:45:30;101750.91;;;18.28;68.26
75414;BME280;64758;52.122;5.404;2023-06-10T04:47:57;101764.53;;;18.33;67.63
75414;BME280;64758;52.122;5.404;2023-06-10T04:50:25;101756.88;;;18.36;69.16
75414;BME280;64758;52.122;5.404;2023-06-10T04:52:52;101760.19;;;18.38;68.77
75414;BME280;64758;52.122;5.404;2023-06-10T04:55:18;101755.41;;;18.40;68.19
75414;BME280;64758;52.122;5.404;2023-06-10T04:57:45;101765.91;;;18.48;67.75
75414;BME280;64758;52.122;5.404;2023-06-10T05:00:11;101763.41;;;18.53;67.89
75414;BME280;64758;52.122;5.404;2023-06-10T05:02:38;101764.19;;;18.60;68.31
75414;BME280;64758;52.122;5.404;2023-06-10T05:05:05;101767.06;;;18.65;68.16
75414;BME280;64758;52.122;5.404;2023-06-10T05:07:33;101761.88;;;18.70;67.85
75414;BME280;64758;52.122;5.404;2023-06-10T05:09:59;101773.25;;;18.72;68.48
75414;BME280;64758;52.122;5.404;2023-06-10T05:12:26;101765.09;;;18.79;68.32
75414;BME280;64758;52.122;5.404;2023-06-10T05:14:52;101761.97;;;18.82;67.70
75414;BME280;64758;52.122;5.404;2023-06-10T05:17:19;101765.88;;;18.86;66.57
75414;BME280;64758;52.122;5.404;2023-06-10T05:19:46;101758.81;;;18.91;67.13
75414;BME280;64758;52.122;5.404;2023-06-10T05:22:13;101766.66;;;18.99;67.88
75414;BME280;64758;52.122;5.404;2023-06-10T05:24:40;101760.81;;;19.02;67.02
75414;BME280;64758;52.122;5.404;2023-06-10T05:27:07;101760.16;;;19.07;67.57
75414;BME280;64758;52.122;5.404;2023-06-10T05:29:35;101764.91;;;19.11;66.79
75414;BME280;64758;52.122;5.404;2023-06-10T05:32:01;101760.94;;;19.14;66.41
75414;BME280;64758;52.122;5.404;2023-06-10T05:34:30;101761.94;;;19.19;67.43
75414;BME280;64758;52.122;5.404;2023-06-10T05:36:57;101774.09;;;19.28;66.96
75414;BME280;64758;52.122;5.404;2023-06-10T05:39:23;101773.44;;;19.32;66.61
75414;BME280;64758;52.122;5.404;2023-06-10T05:41:50;101767.19;;;19.38;66.27
75414;BME280;64758;52.122;5.404;2023-06-10T05:44:16;101771.44;;;19.46;67.75
75414;BME280;64758;52.122;5.404;2023-06-10T05:46:43;101778.66;;;19.52;66.57
75414;BME280;64758;52.122;5.404;2023-06-10T05:49:09;101772.38;;;19.58;67.00
75414;BME280;64758;52.122;5.404;2023-06-10T05:51:36;101772.31;;;19.64;65.31
75414;BME280;64758;52.122;5.404;2023-06-10T05:54:04;101773.56;;;19.62;65.06
75414;BME280;64758;52.122;5.404;2023-06-10T05:56:30;101768.75;;;19.70;66.44
75414;BME280;64758;52.122;5.404;2023-06-10T05:58:57;101779.00;;;19.80;65.72
75414;BME280;64758;52.122;5.404;2023-06-10T06:01:23;101775.84;;;19.83;65.29
75414;BME280;64758;52.122;5.404;2023-06-10T06:03:50;101774.50;;;19.92;65.62
75414;BME280;64758;52.122;5.404;2023-06-10T06:06:17;101761.59;;;20.00;66.48
75414;BME280;64758;52.122;5.404;2023-06-10T06:08:46;101761.97;;;20.04;64.95
75414;BME280;64758;52.122;5.404;2023-06-10T06:11:13;101761.50;;;20.07;65.13
75414;BME280;64758;52.122;5.404;2023-06-10T06:13:40;101761.91;;;20.10;64.07
75414;BME280;64758;52.122;5.404;2023-06-10T06:16:07;101770.50;;;20.19;63.21
75414;BME280;64758;52.122;5.404;2023-06-10T06:18:34;101766.22;;;20.29;64.43
75414;BME280;64758;52.122;5.404;2023-06-10T06:21:00;101763.22;;;20.37;63.58
75414;BME280;64758;52.122;5.404;2023-06-10T06:23:27;101765.97;;;20.49;63.55
75414;BME280;64758;52.122;5.404;2023-06-10T06:25:53;101764.13;;;20.60;64.39
75414;BME280;64758;52.122;5.404;2023-06-10T06:28:20;101765.69;;;20.68;64.13
75414;BME280;64758;52.122;5.404;2023-06-10T06:30:48;101758.75;;;20.72;62.69
75414;BME280;64758;52.122;5.404;2023-06-10T06:33:15;101768.97;;;20.70;61.64
75414;BME280;64758;52.122;5.404;2023-06-10T06:35:42;101769.06;;;20.63;60.67
75414;BME280;64758;52.122;5.404;2023-06-10T06:38:08;101762.31;;;20.72;62.16
75414;BME280;64758;52.122;5.404;2023-06-10T06:40:35;101762.16;;;20.85;61.67
75414;BME280;64758;52.122;5.404;2023-06-10T06:43:01;101762.41;;;20.95;61.88
75414;BME280;64758;52.122;5.404;2023-06-10T06:45:28;101764.91;;;21.08;63.24
75414;BME280;64758;52.122;5.404;2023-06-10T06:47:55;101768.19;;;21.22;61.86
75414;BME280;64758;52.122;5.404;2023-06-10T06:50:22;101765.53;;;21.33;62.14
75414;BME280;64758;52.122;5.404;2023-06-10T06:52:49;101765.78;;;21.43;60.91
75414;BME280;64758;52.122;5.404;2023-06-10T06:55:15;101770.13;;;21.44;58.80
75414;BME280;64758;52.122;5.404;2023-06-10T06:57:42;101764.69;;;21.33;58.73
75414;BME280;64758;52.122;5.404;2023-06-10T07:00:09;101773.06;;;21.31;59.04
75414;BME280;64758;52.122;5.404;2023-06-10T07:02:35;101772.25;;;21.42;60.81
75414;BME280;64758;52.122;5.404;2023-06-10T07:05:02;101768.13;;;21.51;61.83
75414;BME280;64758;52.122;5.404;2023-06-10T07:07:29;101768.25;;;21.68;59.03
75414;BME280;64758;52.122;5.404;2023-06-10T07:09:56;101770.84;;;21.74;60.60
75414;BME280;64758;52.122;5.404;2023-06-10T07:12:22;101762.03;;;21.79;60.79
75414;BME280;64758;52.122;5.404;2023-06-10T07:14:51;101762.47;;;21.87;60.00
75414;BME280;64758;52.122;5.404;2023-06-10T07:17:18;101776.94;;;21.92;59.02
75414;BME280;64758;52.122;5.404;2023-06-10T07:19:45;101774.00;;;21.94;57.89
75414;BME280;64758;52.122;5.404;2023-06-10T07:22:12;101770.91;;;22.02;59.27
75414;BME280;64758;52.122;5.404;2023-06-10T07:24:39;101770.59;;;21.98;56.83
75414;BME280;64758;52.122;5.404;2023-06-10T07:27:06;101771.75;;;22.02;57.76
75414;BME280;64758;52.122;5.404;2023-06-10T07:29:33;101771.34;;;22.22;58.06
75414;BME280;64758;52.122;5.404;2023-06-10T07:32:03;101773.09;;;22.28;58.29
75414;BME280;64758;52.122;5.404;2023-06-10T07:34:29;101764.00;;;22.34;56.74
75414;BME280;64758;52.122;5.404;2023-06-10T07:36:56;101768.38;;;22.46;56.10
75414;BME280;64758;52.122;5.404;2023-06-10T07:39:22;101767.91;;;22.49;56.88
75414;BME280;64758;52.122;5.404;2023-06-10T07:41:49;101770.22;;;22.57;55.05
75414;BME280;64758;52.122;5.404;2023-06-10T07:44:16;101768.31;;;22.58;56.99
75414;BME280;64758;52.122;5.404;2023-06-10T07:46:42;101767.53;;;22.74;57.75
75414;BME280;64758;52.122;5.404;2023-06-10T07:49:09;101768.88;;;22.88;56.08
75414;BME280;64758;52.122;5.404;2023-06-10T07:51:36;101768.81;;;22.99;54.79
75414;BME280;64758;52.122;5.404;2023-06-10T07:54:03;101779.50;;;23.06;55.97
75414;BME280;64758;52.122;5.404;2023-06-10T07:56:29;101776.13;;;22.99;54.10
75414;BME280;64758;52.122;5.404;2023-06-10T07:58:56;101774.22;;;22.99;56.25
75414;BME280;64758;52.122;5.404;2023-06-10T08:01:23;101770.16;;;23.13;55.97
75414;BME280;64758;52.122;5.404;2023-06-10T08:03:50;101775.69;;;23.18;54.18
75414;BME280;64758;52.122;5.404;2023-06-10T08:06:17;101781.78;;;23.41;55.90
75414;BME280;64758;52.122;5.404;2023-06-10T08:08:44;101778.56;;;23.44;52.99
75414;BME280;64758;52.122;5.404;2023-06-10T08:11:12;101781.38;;;23.49;55.61
75414;BME280;64758;52.122;5.404;2023-06-10T08:13:39;101772.88;;;23.62;56.83
75414;BME280;64758;52.122;5.404;2023-06-10T08:16:06;101770.31;;;23.72;54.11
75414;BME280;64758;52.122;5.404;2023-06-10T08:18:33;101771.63;;;23.86;54.86
75414;BME280;64758;52.122;5.404;2023-06-10T08:21:00;101767.50;;;24.00;55.21
75414;BME280;64758;52.122;5.404;2023-06-10T08:23:27;101776.84;;;24.09;53.78
75414;BME280;64758;52.122;5.404;2023-06-10T08:25:53;101772.28;;;24.15;53.23
75414;BME280;64758;52.122;5.404;2023-06-10T08:28:20;101768.56;;;24.21;51.36
75414;BME280;64758;52.122;5.404;2023-06-10T08:30:46;101767.84;;;24.30;50.91
75414;BME280;64758;52.122;5.404;2023-06-10T08:33:13;101766.47;;;24.28;50.37
75414;BME280;64758;52.122;5.404;2023-06-10T08:35:40;101767.41;;;24.38;52.00
75414;BME280;64758;52.122;5.404;2023-06-10T08:38:06;101766.94;;;24.46;52.73
75414;BME280;64758;52.122;5.404;2023-06-10T08:40:33;101772.06;;;24.64;52.69
75414;BME280;64758;52.122;5.404;2023-06-10T08:43:07;101772.75;;;24.76;52.12
75414;BME280;64758;52.122;5.404;2023-06-10T08:45:35;101773.63;;;24.81;49.56
75414;BME280;64758;52.122;5.404;2023-06-10T08:48:03;101772.34;;;24.89;49.42
75414;BME280;64758;52.122;5.404;2023-06-10T08:50:37;101772.66;;;24.92;50.92
75414;BME280;64758;52.122;5.404;2023-06-10T08:53:07;101775.09;;;24.94;48.18
75414;BME280;64758;52.122;5.404;2023-06-10T08:55:38;101772.94;;;24.96;47.79
75414;BME280;64758;52.122;5.404;2023-06-10T08:58:05;101771.34;;;25.00;48.87
75414;BME280;64758;52.122;5.404;2023-06-10T09:00:33;101766.91;;;25.15;49.01
75414;BME280;64758;52.122;5.404;2023-06-10T09:03:01;101773.25;;;25.26;48.58
75414;BME280;64758;52.122;5.404;2023-06-10T09:05:34;101777.66;;;25.32;50.39
75414;BME280;64758;52.122;5.404;2023-06-10T09:08:01;101776.09;;;25.41;49.16
75414;BME280;64758;52.122;5.404;2023-06-10T09:10:28;101771.53;;;25.51;46.65
75414;BME280;64758;52.122;5.404;2023-06-10T09:12:55;101767.56;;;25.64;47.52
75414;BME280;64758;52.122;5.404;2023-06-10T09:15:22;101763.25;;;25.73;49.08
75414;BME280;64758;52.122;5.404;2023-06-10T09:17:49;101765.78;;;25.84;47.82
75414;BME280;64758;52.122;5.404;2023-06-10T09:20:15;101760.41;;;25.99;48.19
75414;BME280;64758;52.122;5.404;2023-06-10T09:22:42;101764.03;;;26.09;45.84
75414;BME280;64758;52.122;5.404;2023-06-10T09:25:12;101758.84;;;26.13;44.40
75414;BME280;64758;52.122;5.404;2023-06-10T09:27:50;101766.53;;;26.26;46.08
75414;BME280;64758;52.122;5.404;2023-06-10T09:30:30;101755.94;;;26.29;46.12
75414;BME280;64758;52.122;5.404;2023-06-10T09:33:00;101758.41;;;26.36;42.95
75414;BME280;64758;52.122;5.404;2023-06-10T09:35:28;101753.84;;;26.46;43.96
75414;BME280;64758;52.122;5.404;2023-06-10T09:37:57;101759.03;;;26.53;44.38
75414;BME280;64758;52.122;5.404;2023-06-10T09:40:24;101746.22;;;26.48;42.27
75414;BME280;64758;52.122;5.404;2023-06-10T09:42:59;101748.66;;;26.50;42.36
75414;BME280;64758;52.122;5.404;2023-06-10T09:45:32;101752.78;;;26.52;42.13
75414;BME280;64758;52.122;5.404;2023-06-10T09:48:00;101752.81;;;26.67;42.73
75414;BME280;64758;52.122;5.404;2023-06-10T09:50:27;101753.34;;;26.79;41.56
75414;BME280;64758;52.122;5.404;2023-06-10T09:52:54;101745.19;;;26.84;39.68
75414;BME280;64758;52.122;5.404;2023-06-10T09:55:21;101742.72;;;26.83;39.88
75414;BME280;64758;52.122;5.404;2023-06-10T09:57:53;101750.09;;;26.92;41.92
75414;BME280;64758;52.122;5.404;2023-06-10T10:00:22;101758.88;;;27.09;42.11
75414;BME280;64758;52.122;5.404;2023-06-10T10:02:50;101748.50;;;27.21;42.40
75414;BME280;64758;52.122;5.404;2023-06-10T10:05:21;101748.78;;;27.30;41.52
75414;BME280;64758;52.122;5.404;2023-06-10T10:07:49;101752.84;;;27.37;42.10
75414;BME280;64758;52.122;5.404;2023-06-10T10:10:18;101748.47;;;27.46;40.62
75414;BME280;64758;52.122;5.404;2023-06-10T10:12:50;101744.09;;;27.60;40.15
75414;BME280;64758;52.122;5.404;2023-06-10T10:15:21;101738.34;;;27.66;40.28
75414;BME280;64758;52.122;5.404;2023-06-10T10:18:06;101742.19;;;27.75;40.84
75414;BME280;64758;52.122;5.404;2023-06-10T10:20:38;101741.88;;;27.82;40.30
75414;BME280;64758;52.122;5.404;2023-06-10T10:23:08;101734.50;;;27.87;37.32
75414;BME280;64758;52.122;5.404;2023-06-10T10:25:40;101733.97;;;27.85;36.59
75414;BME280;64758;52.122;5.404;2023-06-10T10:28:11;101738.91;;;27.83;37.19
75414;BME280;64758;52.122;5.404;2023-06-10T10:30:42;101736.94;;;27.89;35.81
75414;BME280;64758;52.122;5.404;2023-06-10T10:36:14;101730.84;;;28.12;37.55
75414;BME280;64758;52.122;5.404;2023-06-10T10:38:42;101735.41;;;28.26;37.70
75414;BME280;64758;52.122;5.404;2023-06-10T10:41:09;101732.97;;;28.30;36.25
75414;BME280;64758;52.122;5.404;2023-06-10T10:43:37;101722.00;;;28.35;35.65
75414;BME280;64758;52.122;5.404;2023-06-10T10:46:14;101722.22;;;28.43;35.81
75414;BME280;64758;52.122;5.404;2023-06-10T10:48:42;101723.13;;;28.34;35.88
75414;BME280;64758;52.122;5.404;2023-06-10T10:51:11;101709.97;;;28.36;33.37
75414;BME280;64758;52.122;5.404;2023-06-10T10:53:38;101716.72;;;28.48;34.47
75414;BME280;64758;52.122;5.404;2023-06-10T10:56:13;101723.75;;;28.64;35.59
75414;BME280;64758;52.122;5.404;2023-06-10T10:58:40;101728.97;;;28.61;32.58
75414;BME280;64758;52.122;5.404;2023-06-10T11:01:11;101712.59;;;28.56;32.27
75414;BME280;64758;52.122;5.404;2023-06-10T11:03:43;101716.31;;;28.69;33.87
75414;BME280;64758;52.122;5.404;2023-06-10T11:06:13;101711.47;;;28.62;31.77
75414;BME280;64758;52.122;5.404;2023-06-10T11:11:21;101708.81;;;28.90;33.97
75414;BME280;64758;52.122;5.404;2023-06-10T11:13:58;101708.44;;;29.01;34.41
75414;BME280;64758;52.122;5.404;2023-06-10T11:16:27;101707.25;;;29.12;34.67
75414;BME280;64758;52.122;5.404;2023-06-10T11:18:55;101704.03;;;29.05;33.32
75414;BME280;64758;52.122;5.404;2023-06-10T11:21:25;101703.69;;;29.12;33.17
75414;BME280;64758;52.122;5.404;2023-06-10T11:23:57;101705.00;;;29.19;33.41
75414;BME280;64758;52.122;5.404;2023-06-10T11:31:33;101697.28;;;29.26;33.15
75414;BME280;64758;52.122;5.404;2023-06-10T11:34:02;101686.69;;;29.43;32.27
75414;BME280;64758;52.122;5.404;2023-06-10T11:36:31;101691.47;;;29.56;32.38
75414;BME280;64758;52.122;5.404;2023-06-10T11:39:02;101689.84;;;29.55;31.53
75414;BME280;64758;52.122;5.404;2023-06-10T11:41:30;101687.63;;;29.57;32.48
75414;BME280;64758;52.122;5.404;2023-06-10T11:44:06;101688.06;;;29.46;32.32
75414;BME280;64758;52.122;5.404;2023-06-10T11:46:34;101680.59;;;29.51;31.87
75414;BME280;64758;52.122;5.404;2023-06-10T11:49:02;101682.75;;;29.54;31.68
75414;BME280;64758;52.122;5.404;2023-06-10T11:51:37;101685.63;;;29.68;31.64
75414;BME280;64758;52.122;5.404;2023-06-10T11:54:06;101682.22;;;29.52;32.19
75414;BME280;64758;52.122;5.404;2023-06-10T11:56:34;101676.09;;;29.60;31.60
75414;BME280;64758;52.122;5.404;2023-06-10T11:59:03;101674.94;;;29.66;31.08
75414;BME280;64758;52.122;5.404;2023-06-10T12:01:37;101680.22;;;29.81;31.23
75414;BME280;64758;52.122;5.404;2023-06-10T12:04:14;101683.28;;;29.80;31.46
75414;BME280;64758;52.122;5.404;2023-06-10T12:06:45;101674.88;;;29.71;31.42
75414;BME280;64758;52.122;5.404;2023-06-10T12:11:58;101669.44;;;29.90;30.95
75414;BME280;64758;52.122;5.404;2023-06-10T12:17:17;101658.69;;;29.93;31.25
75414;BME280;64758;52.122;5.404;2023-06-10T12:19:44;101652.09;;;29.94;30.71
75414;BME280;64758;52.122;5.404;2023-06-10T12:22:11;101641.72;;;29.91;30.07
75414;BME280;64758;52.122;5.404;2023-06-10T12:24:45;101650.81;;;30.10;32.07
75414;BME280;64758;52.122;5.404;2023-06-10T12:27:12;101636.38;;;30.23;31.47
75414;BME280;64758;52.122;5.404;2023-06-10T12:29:39;101642.81;;;30.32;30.94
75414;BME280;64758;52.122;5.404;2023-06-10T12:32:17;101649.00;;;30.42;29.20
75414;BME280;64758;52.122;5.404;2023-06-10T12:34:45;101638.38;;;30.36;28.87
75414;BME280;64758;52.122;5.404;2023-06-10T12:37:13;101645.28;;;30.15;30.46
75414;BME280;64758;52.122;5.404;2023-06-10T12:39:41;101638.69;;;30.16;30.48
75414;BME280;64758;52.122;5.404;2023-06-10T12:42:09;101646.38;;;30.14;30.18
75414;BME280;64758;52.122;5.404;2023-06-10T12:44:39;101637.13;;;30.10;29.91
75414;BME280;64758;52.122;5.404;2023-06-10T12:47:10;101649.13;;;30.14;28.76
75414;BME280;64758;52.122;5.404;2023-06-10T12:49:38;101644.75;;;30.13;31.54
75414;BME280;64758;52.122;5.404;2023-06-10T12:52:05;101640.91;;;30.14;30.32
75414;BME280;64758;52.122;5.404;2023-06-10T12:54:32;101638.31;;;30.04;29.40
75414;BME280;64758;52.122;5.404;2023-06-10T12:56:59;101641.56;;;30.06;30.16
75414;BME280;64758;52.122;5.404;2023-06-10T12:59:26;101642.59;;;30.10;28.77
75414;BME280;64758;52.122;5.404;2023-06-10T13:01:54;101644.00;;;30.26;30.37
75414;BME280;64758;52.122;5.404;2023-06-10T13:04:21;101636.97;;;30.20;29.75
75414;BME280;64758;52.122;5.404;2023-06-10T13:06:48;101643.19;;;30.44;31.16
75414;BME280;64758;52.122;5.404;2023-06-10T13:09:15;101634.88;;;30.49;28.23
75414;BME280;64758;52.122;5.404;2023-06-10T13:11:42;101630.81;;;30.46;29.49
75414;BME280;64758;52.122;5.404;2023-06-10T13:14:10;101633.47;;;30.70;28.81